Time;durP1;ratioP1;P1;durP2;ratioP2;P2;SDS_P1;SDS_P2;PMS_P1;PMS_P2;Temp;Humidity;BMP_temperature;BMP_pressure;BME280_temperature;BME280_humidity;BME280_pressure;Samples;Min_cycle;Max_cycle;Signal;HPM_P1;HPM_P2
2022/06/22 00:00:23;;;;;;;0.00;0.00;;;13.40;99.90;;;;;;5007152;28;20459;-81
2022/06/22 00:02:54;;;;;;;0.00;0.00;;;13.40;99.90;;;;;;5006606;28;20442;-81
2022/06/22 00:05:29;;;;;;;0.00;0.00;;;13.30;99.90;;;;;;5007021;28;20527;-81
2022/06/22 00:08:00;;;;;;;0.00;0.00;;;13.30;99.90;;;;;;5007267;28;20449;-81
2022/06/22 00:10:33;;;;;;;0.00;0.00;;;13.30;99.90;;;;;;5006937;28;20961;-81
2022/06/22 00:13:03;;;;;;;0.00;0.00;;;13.20;99.90;;;;;;5007366;28;20929;-80
2022/06/22 00:15:35;;;;;;;0.00;0.00;;;13.20;99.90;;;;;;5005313;28;20450;-82
2022/06/22 00:18:25;;;;;;;0.00;0.00;;;13.20;99.90;;;;;;5006145;28;20550;-80
2022/06/22 00:20:56;;;;;;;0.00;0.00;;;13.10;99.90;;;;;;5006210;28;20814;-82
2022/06/22 00:23:28;;;;;;;0.00;0.00;;;13.10;99.90;;;;;;5007269;28;20999;-81
2022/06/22 00:26:18;;;;;;;0.00;0.00;;;13.20;99.90;;;;;;5007233;28;20757;-82
2022/06/22 00:28:55;;;;;;;0.00;0.00;;;13.10;99.90;;;;;;5005753;28;20928;-83
2022/06/22 00:31:37;;;;;;;0.00;0.00;;;13.00;99.90;;;;;;5004763;28;20449;-80
2022/06/22 00:34:15;;;;;;;0.00;0.00;;;13.00;99.90;;;;;;5004942;28;20831;-80
2022/06/22 00:36:47;;;;;;;0.00;0.00;;;13.00;99.90;;;;;;4990987;28;20570;-78
2022/06/22 00:39:23;;;;;;;0.00;0.00;;;12.90;99.90;;;;;;5001273;28;20949;-80
2022/06/22 00:41:55;;;;;;;0.00;0.00;;;12.90;99.90;;;;;;5003410;28;20457;-79
2022/06/22 00:44:25;;;;;;;0.00;0.00;;;12.90;99.90;;;;;;5002469;28;20596;-79
2022/06/22 00:47:00;;;;;;;0.00;0.00;;;12.90;99.90;;;;;;5004569;28;20536;-80
2022/06/22 00:49:31;;;;;;;0.00;0.00;;;12.90;99.90;;;;;;5008972;28;20442;-78
2022/06/22 00:52:01;;;;;;;0.00;0.00;;;13.00;99.90;;;;;;5006119;28;20983;-78
2022/06/22 00:54:33;;;;;;;0.00;0.00;;;12.90;99.90;;;;;;5005546;28;20580;-81
2022/06/22 00:57:07;;;;;;;0.00;0.00;;;12.90;99.90;;;;;;5008676;28;20496;-82
2022/06/22 00:59:40;;;;;;;0.00;0.00;;;12.90;99.90;;;;;;5009906;28;20540;-81
2022/06/22 01:02:19;;;;;;;0.00;0.00;;;12.90;99.90;;;;;;5009421;28;20442;-82
2022/06/22 01:04:53;;;;;;;0.00;0.00;;;12.90;99.90;;;;;;5009126;28;20450;-83
2022/06/22 01:07:27;;;;;;;0.00;0.00;;;12.80;99.90;;;;;;5008013;28;20450;-81
2022/06/22 01:10:05;;;;;;;0.00;0.00;;;12.70;99.90;;;;;;5010127;28;20532;-82
2022/06/22 01:12:47;;;;;;;0.00;0.00;;;12.60;99.90;;;;;;5011879;28;20450;-82
2022/06/22 01:15:22;;;;;;;0.00;0.00;;;12.60;99.90;;;;;;5011807;28;20624;-81
2022/06/22 01:17:57;;;;;;;0.00;0.00;;;12.60;99.90;;;;;;5013956;28;20707;-81
2022/06/22 01:20:34;;;;;;;0.00;0.00;;;12.60;99.90;;;;;;5013898;28;20446;-82
2022/06/22 01:23:44;;;;;;;0.00;0.00;;;12.60;99.90;;;;;;5011437;28;20454;-82
2022/06/22 01:26:35;;;;;;;0.00;0.00;;;12.60;99.90;;;;;;5006758;28;20480;-82
2022/06/22 01:29:12;;;;;;;0.00;0.00;;;12.50;99.90;;;;;;5002176;28;21089;-81
2022/06/22 01:31:46;;;;;;;0.00;0.00;;;12.40;99.90;;;;;;5010851;28;20457;-83
2022/06/22 01:34:17;;;;;;;0.00;0.00;;;12.40;99.90;;;;;;5009026;28;20469;-82
2022/06/22 01:36:45;;;;;;;0.00;0.00;;;12.40;99.90;;;;;;5010077;28;20486;-84
2022/06/22 01:39:14;;;;;;;0.00;0.00;;;12.30;99.90;;;;;;5011783;28;20457;-82
2022/06/22 01:41:48;;;;;;;0.00;0.00;;;12.30;99.90;;;;;;5008219;28;20434;-80
2022/06/22 01:44:23;;;;;;;0.00;0.00;;;12.20;99.90;;;;;;5009475;28;20456;-81
2022/06/22 01:47:11;;;;;;;0.00;0.00;;;12.20;99.90;;;;;;5009520;28;20468;-79
2022/06/22 01:49:44;;;;;;;0.00;0.00;;;12.20;99.90;;;;;;5010350;28;20505;-83
2022/06/22 01:52:22;;;;;;;0.00;0.00;;;12.20;99.90;;;;;;5009385;28;20867;-81
2022/06/22 01:54:57;;;;;;;0.00;0.00;;;12.20;99.90;;;;;;5012332;28;20445;-82
2022/06/22 01:57:31;;;;;;;0.00;0.00;;;12.20;99.90;;;;;;5012096;28;20489;-82
2022/06/22 02:00:06;;;;;;;0.00;0.00;;;12.20;99.90;;;;;;5010183;28;20952;-84
2022/06/22 02:02:40;;;;;;;0.00;0.00;;;12.20;99.90;;;;;;5009368;28;20855;-84
2022/06/22 02:05:18;;;;;;;0.00;0.00;;;12.20;99.90;;;;;;5009408;28;20741;-84
2022/06/22 02:07:54;;;;;;;0.00;0.00;;;12.20;99.90;;;;;;5009324;28;20876;-84
2022/06/22 02:10:30;;;;;;;0.00;0.00;;;12.10;99.90;;;;;;5010032;28;20924;-84
2022/06/22 02:13:05;;;;;;;0.00;0.00;;;12.10;99.90;;;;;;5010220;28;20445;-84
2022/06/22 02:15:47;;;;;;;0.00;0.00;;;12.00;99.90;;;;;;5011083;28;20449;-80
2022/06/22 02:23:38;;;;;;;0.00;0.00;;;11.90;99.90;;;;;;5011031;28;20878;-81
2022/06/22 02:26:13;;;;;;;0.00;0.00;;;11.80;99.90;;;;;;5006731;28;20457;-81
2022/06/22 02:28:43;;;;;;;0.00;0.00;;;11.90;99.90;;;;;;5013140;28;20485;-83
2022/06/22 02:31:13;;;;;;;0.00;0.00;;;11.90;99.90;;;;;;5010797;28;20650;-82
2022/06/22 02:33:44;;;;;;;0.00;0.00;;;11.80;99.90;;;;;;5012716;28;20530;-82
2022/06/22 02:36:14;;;;;;;0.00;0.00;;;11.80;99.90;;;;;;5008925;28;20885;-81
2022/06/22 02:38:44;;;;;;;0.00;0.00;;;11.70;99.90;;;;;;5010000;28;20474;-81
2022/06/22 02:46:46;;;;;;;0.00;0.00;;;11.70;99.90;;;;;;5006189;28;20773;-80
2022/06/22 02:49:21;;;;;;;0.00;0.00;;;11.70;99.90;;;;;;5006782;28;20472;-80
2022/06/22 02:51:51;;;;;;;0.00;0.00;;;11.60;99.90;;;;;;5006220;28;20456;-79
2022/06/22 02:54:29;;;;;;;0.00;0.00;;;11.70;99.90;;;;;;5005739;28;20814;-84
2022/06/22 02:57:09;;;;;;;0.00;0.00;;;11.60;99.90;;;;;;5008246;28;20981;-82
2022/06/22 02:59:38;;;;;;;0.00;0.00;;;11.50;99.90;;;;;;5008629;28;20430;-81
2022/06/22 03:02:09;;;;;;;0.00;0.00;;;11.50;99.90;;;;;;5006180;28;20482;-82
2022/06/22 03:04:39;;;;;;;0.00;0.00;;;11.50;99.90;;;;;;5005801;28;20441;-82
2022/06/22 03:07:08;;;;;;;0.00;0.00;;;11.50;99.90;;;;;;5006343;28;20478;-82
2022/06/22 03:09:37;;;;;;;0.00;0.00;;;11.40;99.90;;;;;;5006173;28;20525;-82
2022/06/22 03:12:06;;;;;;;0.00;0.00;;;11.50;99.90;;;;;;5011856;28;20655;-82
2022/06/22 03:14:38;;;;;;;0.00;0.00;;;11.50;99.90;;;;;;5010405;28;20903;-82
2022/06/22 03:17:13;;;;;;;0.00;0.00;;;11.40;99.90;;;;;;4993451;28;20484;-85
2022/06/22 03:19:45;;;;;;;0.00;0.00;;;11.50;99.90;;;;;;4987870;28;20470;-84
2022/06/22 03:22:20;;;;;;;0.00;0.00;;;11.40;99.90;;;;;;4987209;28;20751;-85
2022/06/22 03:24:53;;;;;;;0.00;0.00;;;11.40;99.90;;;;;;4987818;28;20839;-85
2022/06/22 03:27:29;;;;;;;0.00;0.00;;;11.50;99.90;;;;;;4987768;28;20506;-84
2022/06/22 03:30:01;;;;;;;0.00;0.00;;;11.50;99.90;;;;;;4988129;28;20443;-79
2022/06/22 03:32:34;;;;;;;0.00;0.00;;;11.40;99.90;;;;;;4993165;28;20435;-80
2022/06/22 03:35:07;;;;;;;0.00;0.00;;;11.50;99.90;;;;;;4994143;28;20439;-80
2022/06/22 03:37:39;;;;;;;0.00;0.00;;;11.50;99.90;;;;;;5016824;28;20490;-81
2022/06/22 03:40:13;;;;;;;0.00;0.00;;;11.60;99.90;;;;;;5014817;28;20683;-80
2022/06/22 03:42:47;;;;;;;0.00;0.00;;;11.60;99.90;;;;;;5006388;28;20449;-79
2022/06/22 03:45:21;;;;;;;0.00;0.00;;;11.50;99.90;;;;;;5007065;28;20472;-81
2022/06/22 03:47:57;;;;;;;0.00;0.00;;;11.50;99.90;;;;;;5006929;28;20460;-82
2022/06/22 03:50:35;;;;;;;0.00;0.00;;;11.50;99.90;;;;;;5008549;28;21000;-81
2022/06/22 03:53:09;;;;;;;0.00;0.00;;;11.60;99.90;;;;;;5007479;28;20457;-80
2022/06/22 03:55:40;;;;;;;0.00;0.00;;;11.60;99.90;;;;;;5007467;28;20422;-80
2022/06/22 03:58:10;;;;;;;0.00;0.00;;;11.60;99.90;;;;;;5006712;28;20478;-80
2022/06/22 04:00:42;;;;;;;0.00;0.00;;;11.60;99.90;;;;;;4992393;28;20531;-80
2022/06/22 04:03:13;;;;;;;0.00;0.00;;;11.70;99.90;;;;;;4987757;28;20466;-81
2022/06/22 04:05:43;;;;;;;0.00;0.00;;;11.80;99.90;;;;;;4988640;28;20461;-81
2022/06/22 04:08:16;;;;;;;0.00;0.00;;;11.80;99.90;;;;;;4988438;28;20433;-81
2022/06/22 04:10:48;;;;;;;0.00;0.00;;;11.80;99.90;;;;;;4987767;28;20439;-81
2022/06/22 04:13:22;;;;;;;0.00;0.00;;;11.90;99.90;;;;;;4987223;28;20592;-81
2022/06/22 04:15:55;;;;;;;0.00;0.00;;;11.90;99.90;;;;;;4986226;28;20501;-80
2022/06/22 04:18:28;;;;;;;0.00;0.00;;;11.90;99.90;;;;;;4986004;28;21036;-81
2022/06/22 04:21:02;;;;;;;0.00;0.00;;;12.00;99.90;;;;;;4984722;28;20519;-79
2022/06/22 04:23:35;;;;;;;0.00;0.00;;;12.10;99.90;;;;;;4984401;28;20435;-79
2022/06/22 04:26:10;;;;;;;0.00;0.00;;;12.10;99.90;;;;;;4986295;28;20485;-83
2022/06/22 04:28:41;;;;;;;0.00;0.00;;;12.20;99.90;;;;;;4987016;28;20473;-79
2022/06/22 04:31:15;;;;;;;0.00;0.00;;;12.10;99.90;;;;;;4986936;28;20450;-83
2022/06/22 04:33:47;;;;;;;0.00;0.00;;;12.10;99.90;;;;;;4984180;28;20572;-80
2022/06/22 04:36:20;;;;;;;0.00;0.00;;;12.20;99.90;;;;;;4994953;28;20828;-76
2022/06/22 04:38:53;;;;;;;0.00;0.00;;;12.30;99.90;;;;;;5004416;28;20531;-77
2022/06/22 04:41:28;;;;;;;0.00;0.00;;;12.40;99.90;;;;;;4993981;28;20545;-72
2022/06/22 04:44:01;;;;;;;0.00;0.00;;;12.60;99.90;;;;;;4987889;28;21183;-73
2022/06/22 04:50:14;;;;;;;0.00;0.00;;;12.80;99.90;;;;;;5011072;28;20417;-80
2022/06/22 04:52:47;;;;;;;0.00;0.00;;;12.80;99.90;;;;;;5004536;28;20484;-80
2022/06/22 04:55:18;;;;;;;0.00;0.00;;;12.90;99.90;;;;;;5003878;28;20469;-79
2022/06/22 04:57:49;;;;;;;0.00;0.00;;;13.00;99.90;;;;;;5003180;28;20597;-79
2022/06/22 05:00:24;;;;;;;0.00;0.00;;;13.00;99.90;;;;;;5004165;28;20457;-79
2022/06/22 05:02:57;;;;;;;0.00;0.00;;;13.20;99.90;;;;;;5016507;28;20750;-79
2022/06/22 05:05:30;;;;;;;0.00;0.00;;;13.20;99.90;;;;;;5015524;28;20432;-80
2022/06/22 05:08:03;;;;;;;0.00;0.00;;;13.40;99.90;;;;;;5006835;28;20709;-80
2022/06/22 05:10:40;;;;;;;0.00;0.00;;;13.40;99.90;;;;;;5007755;28;20478;-79
2022/06/22 05:13:14;;;;;;;0.00;0.00;;;13.50;99.90;;;;;;5005592;28;20545;-79
2022/06/22 05:15:45;;;;;;;0.00;0.00;;;13.50;99.90;;;;;;5004804;28;20445;-80
2022/06/22 05:18:19;;;;;;;0.00;0.00;;;13.60;99.90;;;;;;4997608;28;20502;-78
2022/06/22 05:20:52;;;;;;;0.00;0.00;;;13.70;99.90;;;;;;4996349;28;20433;-74
2022/06/22 05:23:23;;;;;;;0.00;0.00;;;13.80;99.90;;;;;;4996136;28;20647;-75
2022/06/22 05:26:00;;;;;;;0.00;0.00;;;13.90;99.90;;;;;;4999019;28;20488;-76
2022/06/22 05:28:36;;;;;;;0.00;0.00;;;14.10;99.90;;;;;;4999129;28;20458;-77
2022/06/22 05:31:08;;;;;;;0.00;0.00;;;14.30;99.90;;;;;;4998020;28;20904;-73
2022/06/22 05:33:39;;;;;;;0.00;0.00;;;14.70;99.90;;;;;;4998048;28;20972;-73
2022/06/22 05:36:12;;;;;;;0.00;0.00;;;15.20;99.90;;;;;;4998504;28;20505;-74
2022/06/22 05:38:42;;;;;;;0.00;0.00;;;15.40;99.90;;;;;;4986151;28;20757;-74
2022/06/22 05:41:11;;;;;;;0.00;0.00;;;15.40;99.90;;;;;;4980917;28;20455;-73
2022/06/22 05:43:40;;;;;;;0.00;0.00;;;15.30;99.90;;;;;;4979062;28;20461;-73
2022/06/22 05:46:11;;;;;;;0.00;0.00;;;15.30;99.90;;;;;;4978408;28;20473;-74
2022/06/22 05:48:42;;;;;;;0.00;0.00;;;15.30;99.90;;;;;;4989205;28;20538;-73
2022/06/22 05:51:17;;;;;;;0.00;0.00;;;15.20;99.90;;;;;;4978769;28;20449;-73
2022/06/22 05:53:50;;;;;;;0.00;0.00;;;15.20;99.90;;;;;;4978463;28;20608;-71
2022/06/22 05:56:23;;;;;;;0.00;0.00;;;15.20;99.90;;;;;;4978534;28;20462;-72
2022/06/22 05:58:56;;;;;;;0.00;0.00;;;15.20;99.90;;;;;;4987667;28;20573;-73
2022/06/22 06:01:32;;;;;;;0.00;0.00;;;15.10;99.90;;;;;;4983692;28;20458;-73
2022/06/22 06:04:11;;;;;;;0.00;0.00;;;15.20;99.90;;;;;;4996450;28;20433;-73
2022/06/22 06:06:42;;;;;;;0.00;0.00;;;15.30;99.90;;;;;;4978576;28;21221;-72
2022/06/22 06:09:19;;;;;;;0.00;0.00;;;15.40;99.90;;;;;;4987911;28;20422;-74
2022/06/22 06:11:51;;;;;;;0.00;0.00;;;15.40;99.90;;;;;;5000291;28;20473;-73
2022/06/22 06:14:26;;;;;;;0.00;0.00;;;15.50;99.90;;;;;;4995058;28;20977;-73
2022/06/22 06:16:57;;;;;;;0.00;0.00;;;15.60;99.90;;;;;;4986373;28;20485;-73
2022/06/22 06:19:30;;;;;;;0.00;0.00;;;15.60;99.90;;;;;;4984276;28;20498;-74
2022/06/22 06:22:04;;;;;;;0.00;0.00;;;15.60;99.90;;;;;;4982591;28;20519;-72
2022/06/22 06:24:37;;;;;;;0.00;0.00;;;15.80;99.90;;;;;;4998917;28;20449;-72
2022/06/22 06:30:07;;;;;;;0.00;0.00;;;15.90;99.90;;;;;;4998462;28;21107;-68
2022/06/22 06:32:40;;;;;;;0.00;0.00;;;16.00;99.90;;;;;;4994481;28;20967;-67
2022/06/22 06:35:17;;;;;;;0.00;0.00;;;16.10;99.90;;;;;;5005711;28;20438;-69
2022/06/22 06:38:01;;;;;;;0.00;0.00;;;16.20;99.90;;;;;;4989497;28;20476;-70
2022/06/22 06:40:41;;;;;;;0.00;0.00;;;16.20;99.90;;;;;;4989083;28;20488;-71
2022/06/22 06:43:30;;;;;;;0.00;0.00;;;16.30;99.90;;;;;;4982531;28;20427;-70
2022/06/22 06:46:00;;;;;;;0.00;0.00;;;16.30;99.90;;;;;;4983335;28;20487;-77
2022/06/22 06:48:30;;;;;;;0.00;0.00;;;16.40;99.90;;;;;;4983210;28;20535;-75
2022/06/22 06:51:02;;;;;;;0.00;0.00;;;16.40;99.90;;;;;;4998101;28;21011;-77
2022/06/22 06:53:39;;;;;;;0.00;0.00;;;16.50;99.90;;;;;;4993116;28;20542;-77
2022/06/22 06:56:14;;;;;;;0.00;0.00;;;16.50;99.90;;;;;;4981642;28;20465;-76
2022/06/22 06:58:48;;;;;;;0.00;0.00;;;16.60;99.90;;;;;;4982569;28;20807;-76
2022/06/22 07:01:19;;;;;;;0.00;0.00;;;16.70;99.90;;;;;;4988332;28;20586;-76
2022/06/22 07:03:50;;;;;;;0.00;0.00;;;16.80;99.90;;;;;;4989014;28;20462;-75
2022/06/22 07:06:18;;;;;;;0.00;0.00;;;16.80;99.90;;;;;;4985560;28;20464;-73
2022/06/22 07:09:00;;;;;;;0.00;0.00;;;16.90;99.90;;;;;;4986059;28;20443;-76
2022/06/22 07:11:34;;;;;;;0.00;0.00;;;17.00;99.90;;;;;;4995824;28;20696;-75
2022/06/22 07:14:07;;;;;;;0.00;0.00;;;17.10;99.90;;;;;;4981266;28;20807;-74
2022/06/22 07:16:36;;;;;;;0.00;0.00;;;17.20;99.90;;;;;;4980879;28;20466;-74
2022/06/22 07:19:08;;;;;;;0.00;0.00;;;17.20;99.90;;;;;;4983240;28;20431;-74
2022/06/22 07:21:45;;;;;;;0.00;0.00;;;17.30;99.90;;;;;;4982083;28;20542;-75
2022/06/22 07:24:21;;;;;;;0.00;0.00;;;17.40;99.90;;;;;;4980691;28;21078;-74
2022/06/22 07:26:55;;;;;;;0.00;0.00;;;17.50;99.90;;;;;;4980644;28;20473;-74
2022/06/22 07:29:35;;;;;;;0.00;0.00;;;17.50;99.90;;;;;;4980475;28;20450;-74
2022/06/22 07:32:16;;;;;;;0.00;0.00;;;17.60;99.90;;;;;;4985671;28;20487;-72
2022/06/22 07:34:56;;;;;;;0.00;0.00;;;17.60;99.90;;;;;;4999169;28;20461;-74
2022/06/22 07:37:29;;;;;;;0.00;0.00;;;17.80;99.90;;;;;;4999530;28;20988;-76
2022/06/22 07:40:05;;;;;;;0.00;0.00;;;17.80;99.90;;;;;;4999644;28;20479;-75
2022/06/22 07:42:39;;;;;;;0.00;0.00;;;17.90;99.90;;;;;;5000197;28;20900;-76
2022/06/22 07:45:23;;;;;;;0.00;0.00;;;17.90;99.90;;;;;;4999411;28;20447;-76
2022/06/22 07:48:10;;;;;;;0.00;0.00;;;17.90;99.90;;;;;;4980477;28;20964;-78
2022/06/22 07:50:46;;;;;;;0.00;0.00;;;18.00;99.90;;;;;;4985365;28;20445;-77
2022/06/22 07:53:18;;;;;;;0.00;0.00;;;18.00;99.90;;;;;;4983786;28;20544;-76
2022/06/22 07:55:53;;;;;;;0.00;0.00;;;18.10;99.90;;;;;;4991186;28;20983;-77
2022/06/22 07:58:28;;;;;;;0.00;0.00;;;18.10;99.90;;;;;;5000392;28;20444;-76
2022/06/22 08:01:00;;;;;;;0.00;0.00;;;18.10;99.90;;;;;;4987204;28;20652;-75
2022/06/22 08:03:33;;;;;;;0.00;0.00;;;18.20;99.90;;;;;;4992921;28;20450;-76
2022/06/22 08:06:06;;;;;;;0.00;0.00;;;18.20;99.90;;;;;;4987982;28;20520;-77
2022/06/22 08:08:37;;;;;;;0.00;0.00;;;18.30;99.90;;;;;;4990981;28;20569;-76
2022/06/22 08:11:14;;;;;;;0.00;0.00;;;18.40;99.90;;;;;;4984134;28;20458;-76
2022/06/22 08:13:48;;;;;;;0.00;0.00;;;18.50;99.90;;;;;;4991775;28;20751;-77
2022/06/22 08:16:23;;;;;;;0.00;0.00;;;18.50;99.90;;;;;;4982329;28;20988;-79
2022/06/22 08:18:52;;;;;;;0.00;0.00;;;18.50;99.90;;;;;;4981017;28;20461;-77
2022/06/22 08:21:27;;;;;;;0.00;0.00;;;18.60;99.90;;;;;;4985768;28;20606;-78
2022/06/22 08:23:57;;;;;;;0.00;0.00;;;18.60;99.90;;;;;;4984147;28;20552;-78
2022/06/22 08:26:30;;;;;;;0.00;0.00;;;18.60;99.90;;;;;;4980429;28;20537;-77
2022/06/22 08:29:01;;;;;;;0.00;0.00;;;18.70;99.90;;;;;;4979792;28;20802;-77
2022/06/22 08:31:36;;;;;;;0.00;0.00;;;18.70;99.90;;;;;;4984711;28;20454;-77
2022/06/22 08:34:12;;;;;;;0.00;0.00;;;18.90;99.90;;;;;;4985760;28;20450;-76
2022/06/22 08:36:43;;;;;;;0.00;0.00;;;18.90;99.90;;;;;;4977573;28;20489;-76
2022/06/22 08:39:15;;;;;;;0.00;0.00;;;18.90;99.90;;;;;;4984569;28;20589;-77
2022/06/22 08:41:53;;;;;;;0.00;0.00;;;18.90;99.90;;;;;;4984556;28;20497;-76
2022/06/22 08:44:33;;;;;;;0.00;0.00;;;18.90;99.90;;;;;;4979473;28;20832;-78
2022/06/22 08:50:35;;;;;;;0.00;0.00;;;19.00;99.90;;;;;;5207099;22;20490;-73
2022/06/22 08:53:32;;;;;;;0.00;0.00;;;19.20;99.90;;;;;;4996850;28;20473;-72
2022/06/22 08:56:18;;;;;;;0.00;0.00;;;19.30;99.90;;;;;;4996080;28;20476;-73
2022/06/22 08:59:14;;;;;;;0.00;0.00;;;19.30;99.90;;;;;;4979048;28;20934;-73
2022/06/22 09:01:54;;;;;;;0.00;0.00;;;19.40;99.90;;;;;;4979121;28;21186;-73
2022/06/22 09:04:51;;;;;;;0.00;0.00;;;19.50;99.90;;;;;;4980053;28;20478;-73
2022/06/22 09:07:32;;;;;;;0.00;0.00;;;19.60;99.90;;;;;;4980450;28;21202;-74
2022/06/22 09:10:30;;;;;;;0.00;0.00;;;19.50;99.90;;;;;;4997648;28;20465;-76
2022/06/22 09:13:20;;;;;;;0.00;0.00;;;19.50;99.90;;;;;;5000656;28;20533;-70
2022/06/22 09:15:59;;;;;;;0.00;0.00;;;19.60;99.90;;;;;;5000062;28;20513;-69
2022/06/22 09:18:48;;;;;;;0.00;0.00;;;19.80;99.90;;;;;;4999132;28;20475;-71
2022/06/22 09:21:26;;;;;;;0.00;0.00;;;19.80;99.90;;;;;;4998373;28;21161;-69
2022/06/22 09:24:04;;;;;;;0.00;0.00;;;19.90;99.90;;;;;;4989950;28;21002;-70
2022/06/22 09:26:38;;;;;;;0.00;0.00;;;19.90;99.90;;;;;;4990255;28;21151;-70
2022/06/22 09:29:21;;;;;;;0.00;0.00;;;20.00;99.90;;;;;;4992200;28;20441;-70
2022/06/22 09:32:15;;;;;;;0.00;0.00;;;20.20;99.90;;;;;;4988462;28;21079;-70
2022/06/22 09:35:23;;;;;;;0.00;0.00;;;20.30;99.90;;;;;;4994236;28;20516;-74
2022/06/22 09:38:06;;;;;;;0.00;0.00;;;20.40;99.90;;;;;;4926223;28;20474;-74
2022/06/22 09:40:45;;;;;;;0.00;0.00;;;20.40;99.90;;;;;;4983138;28;21474;-74
2022/06/22 09:43:58;;;;;;;0.00;0.00;;;20.40;99.90;;;;;;4984856;28;20529;-73
2022/06/22 09:47:05;;;;;;;0.00;0.00;;;20.30;99.90;;;;;;4925126;28;20470;-72
2022/06/22 09:50:03;;;;;;;0.00;0.00;;;20.30;99.90;;;;;;4984684;28;20557;-73
2022/06/22 09:52:59;;;;;;;0.00;0.00;;;20.30;99.90;;;;;;4985160;28;20486;-73
2022/06/22 09:59:19;;;;;;;0.00;0.00;;;20.30;99.90;;;;;;4982707;28;20539;-73
2022/06/22 10:01:56;;;;;;;0.00;0.00;;;20.30;99.90;;;;;;4975033;28;20481;-74
2022/06/22 10:05:12;;;;;;;0.00;0.00;;;20.40;99.90;;;;;;4989301;28;20465;-73
2022/06/22 10:07:55;;;;;;;0.00;0.00;;;20.50;99.90;;;;;;4944883;28;20784;-73
2022/06/22 10:10:35;;;;;;;0.00;0.00;;;20.50;99.90;;;;;;5000895;28;20446;-73
2022/06/22 10:13:35;;;;;;;0.00;0.00;;;20.60;99.90;;;;;;4994484;28;20531;-74
2022/06/22 10:16:39;;;;;;;0.00;0.00;;;20.60;99.90;;;;;;5000325;28;20480;-73
2022/06/22 10:19:22;;;;;;;0.00;0.00;;;20.80;99.90;;;;;;5000602;28;20438;-72
2022/06/22 10:22:08;;;;;;;0.00;0.00;;;20.90;99.90;;;;;;4997683;28;20854;-73
2022/06/22 10:24:59;;;;;;;0.00;0.00;;;21.00;99.90;;;;;;4999342;28;20473;-73
2022/06/22 10:27:42;;;;;;;0.00;0.00;;;21.00;99.90;;;;;;4999196;28;20502;-73
2022/06/22 10:30:19;;;;;;;0.00;0.00;;;21.00;99.90;;;;;;4999240;28;20442;-73
2022/06/22 10:33:21;;;;;;;0.00;0.00;;;21.00;99.90;;;;;;5001046;28;20473;-73
2022/06/22 10:36:15;;;;;;;0.00;0.00;;;21.00;99.90;;;;;;4999830;28;20454;-73
2022/06/22 10:39:04;;;;;;;0.00;0.00;;;21.10;99.90;;;;;;4991171;28;20725;-74
2022/06/22 10:47:59;;;;;;;0.00;0.00;;;21.20;99.90;;;;;;5000794;28;20474;-73
2022/06/22 10:50:37;;;;;;;0.00;0.00;;;21.20;99.90;;;;;;4968084;28;20465;-73
2022/06/22 10:53:33;;;;;;;0.00;0.00;;;21.20;99.90;;;;;;4981756;28;20453;-74
2022/06/22 10:56:12;;;;;;;0.00;0.00;;;21.30;99.90;;;;;;4984018;28;20755;-74
2022/06/22 10:59:10;;;;;;;0.00;0.00;;;21.30;99.90;;;;;;4999616;28;20443;-73
2022/06/22 11:01:56;;;;;;;0.00;0.00;;;21.40;99.90;;;;;;4999459;28;20536;-72
2022/06/22 11:04:55;;;;;;;0.00;0.00;;;21.50;99.90;;;;;;4998839;28;20471;-74
2022/06/22 11:07:51;;;;;;;0.00;0.00;;;21.60;99.90;;;;;;4997766;28;20549;-72
2022/06/22 11:10:37;;;;;;;0.00;0.00;;;21.70;99.90;;;;;;4996959;28;20448;-71
2022/06/22 11:13:26;;;;;;;0.00;0.00;;;21.70;99.90;;;;;;4997846;28;20459;-71
2022/06/22 11:16:08;;;;;;;0.00;0.00;;;21.70;99.90;;;;;;4998846;28;20448;-72
2022/06/22 11:18:58;;;;;;;0.00;0.00;;;21.70;99.90;;;;;;4999753;28;20561;-74
2022/06/22 11:21:42;;;;;;;0.00;0.00;;;21.80;99.90;;;;;;4997829;28;20474;-75
2022/06/22 11:24:38;;;;;;;0.00;0.00;;;21.90;99.90;;;;;;4980850;28;20447;-75
2022/06/22 11:33:13;;;;;;;0.00;0.00;;;22.10;99.90;;;;;;5003550;28;20454;-75
2022/06/22 11:36:01;;;;;;;0.00;0.00;;;22.20;99.90;;;;;;5001026;28;20477;-74
2022/06/22 11:38:57;;;;;;;0.00;0.00;;;22.30;99.90;;;;;;5000380;28;21091;-74
2022/06/22 11:41:51;;;;;;;0.00;0.00;;;22.40;99.90;;;;;;5000992;28;20438;-75
2022/06/22 11:44:43;;;;;;;0.00;0.00;;;22.40;99.90;;;;;;5000707;28;20433;-75
2022/06/22 11:47:19;;;;;;;0.00;0.00;;;22.50;99.90;;;;;;5000887;28;20461;-75
2022/06/22 11:49:57;;;;;;;0.00;0.00;;;22.50;99.90;;;;;;5003674;28;20547;-75
2022/06/22 11:52:56;;;;;;;0.00;0.00;;;22.60;99.90;;;;;;5000700;28;20468;-74
2022/06/22 11:55:29;;;;;;;0.00;0.00;;;22.60;99.90;;;;;;4959680;28;20442;-75
2022/06/22 11:58:22;;;;;;;0.00;0.00;;;22.70;99.90;;;;;;5000313;28;20467;-73
2022/06/22 12:01:04;;;;;;;0.00;0.00;;;22.80;99.90;;;;;;5000073;28;20935;-74
2022/06/22 12:03:57;;;;;;;0.00;0.00;;;22.80;99.90;;;;;;4999478;28;20534;-73
2022/06/22 12:06:54;;;;;;;0.00;0.00;;;23.10;99.90;;;;;;4999334;28;20476;-74
2022/06/22 12:09:39;;;;;;;0.00;0.00;;;23.20;99.90;;;;;;4999414;28;21000;-74
2022/06/22 12:12:29;;;;;;;0.00;0.00;;;23.20;99.90;;;;;;4999044;28;20439;-73
2022/06/22 12:15:09;;;;;;;0.00;0.00;;;23.20;99.90;;;;;;4998747;28;20446;-73
2022/06/22 12:17:54;;;;;;;0.00;0.00;;;23.20;99.90;;;;;;4998890;28;20575;-74
2022/06/22 12:20:37;;;;;;;0.00;0.00;;;23.20;99.90;;;;;;4999114;28;21200;-74
2022/06/22 12:23:14;;;;;;;0.00;0.00;;;23.30;99.90;;;;;;4999183;28;20491;-76
2022/06/22 12:26:12;;;;;;;0.00;0.00;;;23.20;99.90;;;;;;5001163;28;21085;-73
2022/06/22 12:28:51;;;;;;;0.00;0.00;;;23.30;99.90;;;;;;5000042;28;20477;-73
2022/06/22 12:31:22;;;;;;;0.00;0.00;;;23.40;99.90;;;;;;4999364;28;20980;-74
2022/06/22 12:33:55;;;;;;;0.00;0.00;;;23.40;99.90;;;;;;4999232;28;20434;-76
2022/06/22 12:36:29;;;;;;;0.00;0.00;;;23.60;99.90;;;;;;4998888;28;20460;-75
2022/06/22 12:39:06;;;;;;;0.00;0.00;;;23.70;99.90;;;;;;4998488;28;20424;-74
2022/06/22 12:41:56;;;;;;;0.00;0.00;;;23.80;99.90;;;;;;4997400;28;20444;-75
2022/06/22 12:44:42;;;;;;;0.00;0.00;;;23.90;99.90;;;;;;4998102;28;20461;-75
2022/06/22 12:47:44;;;;;;;0.00;0.00;;;23.90;99.90;;;;;;4998782;28;20467;-75
2022/06/22 12:50:42;;;;;;;0.00;0.00;;;23.90;99.90;;;;;;4999034;28;20977;-74
2022/06/22 12:53:16;;;;;;;0.00;0.00;;;23.90;99.90;;;;;;4997751;28;20534;-75
2022/06/22 12:55:48;;;;;;;0.00;0.00;;;23.90;99.90;;;;;;4998056;28;20458;-75
2022/06/22 12:58:22;;;;;;;0.00;0.00;;;23.90;99.90;;;;;;4998585;28;20450;-75
2022/06/22 13:00:51;;;;;;;0.00;0.00;;;23.90;99.90;;;;;;4998154;28;20494;-74
2022/06/22 13:03:23;;;;;;;0.00;0.00;;;24.00;99.90;;;;;;4998803;28;20478;-74
2022/06/22 13:05:52;;;;;;;0.00;0.00;;;24.00;99.90;;;;;;4998659;28;20490;-75
2022/06/22 13:08:25;;;;;;;0.00;0.00;;;24.00;99.90;;;;;;4997965;28;20432;-73
2022/06/22 13:10:57;;;;;;;0.00;0.00;;;24.00;99.90;;;;;;4995969;28;20446;-74
2022/06/22 13:13:32;;;;;;;0.00;0.00;;;23.90;99.90;;;;;;4998053;28;20452;-74
2022/06/22 13:16:05;;;;;;;0.00;0.00;;;23.90;99.90;;;;;;4996448;28;20449;-74
2022/06/22 13:18:42;;;;;;;0.00;0.00;;;23.80;99.90;;;;;;4995457;28;21035;-75
2022/06/22 13:21:13;;;;;;;0.00;0.00;;;23.80;99.90;;;;;;4997971;28;20522;-75
2022/06/22 13:23:52;;;;;;;0.00;0.00;;;23.90;99.90;;;;;;4997730;28;20497;-74
2022/06/22 13:26:33;;;;;;;0.00;0.00;;;23.90;99.90;;;;;;4996654;28;20465;-74
2022/06/22 13:29:14;;;;;;;0.00;0.00;;;23.90;99.90;;;;;;4996723;28;20440;-75
2022/06/22 13:31:45;;;;;;;0.00;0.00;;;23.90;99.90;;;;;;4997569;28;21103;-76
2022/06/22 13:34:16;;;;;;;0.00;0.00;;;23.90;99.90;;;;;;5003695;28;20505;-76
2022/06/22 13:36:56;;;;;;;0.00;0.00;;;23.80;99.90;;;;;;5004903;28;21185;-75
2022/06/22 13:39:34;;;;;;;0.00;0.00;;;23.90;99.90;;;;;;5004180;28;20464;-76
2022/06/22 13:42:22;;;;;;;0.00;0.00;;;23.90;99.90;;;;;;5004604;28;20943;-75
2022/06/22 13:45:01;;;;;;;0.00;0.00;;;24.00;99.90;;;;;;5004573;28;20431;-75
2022/06/22 13:47:44;;;;;;;0.00;0.00;;;24.00;99.90;;;;;;5004669;28;20474;-76
2022/06/22 13:50:32;;;;;;;0.00;0.00;;;24.00;99.90;;;;;;5004723;28;20553;-75
2022/06/22 13:53:10;;;;;;;0.00;0.00;;;24.00;99.90;;;;;;5004012;28;20530;-77
2022/06/22 13:55:51;;;;;;;0.00;0.00;;;24.00;99.90;;;;;;5003873;28;20439;-74
2022/06/22 13:58:27;;;;;;;0.00;0.00;;;24.00;99.90;;;;;;5003684;28;20454;-74
2022/06/22 14:01:00;;;;;;;0.00;0.00;;;24.10;99.90;;;;;;5003874;28;20432;-75
2022/06/22 14:03:34;;;;;;;0.00;0.00;;;24.10;99.90;;;;;;5004333;28;20497;-75
2022/06/22 14:06:12;;;;;;;0.00;0.00;;;24.20;99.90;;;;;;5004428;28;20491;-75
2022/06/22 14:09:00;;;;;;;0.00;0.00;;;24.20;99.90;;;;;;5005404;28;20445;-74
2022/06/22 14:11:39;;;;;;;0.00;0.00;;;24.20;99.90;;;;;;5003910;28;20455;-74
2022/06/22 14:14:20;;;;;;;0.00;0.00;;;24.20;99.90;;;;;;5005296;28;20438;-75
2022/06/22 14:16:53;;;;;;;0.00;0.00;;;24.20;99.90;;;;;;5001198;28;20490;-75
2022/06/22 14:19:27;;;;;;;0.00;0.00;;;24.20;99.90;;;;;;4993357;28;20458;-75